South Garden, Virginia
Current Conditions -  °F | °C
As of 7:35 PM on Friday 24 Oct 2014 (Local Time) from KW13 Reporting Station
Clear Clear  
Wind Chill: 54°   Ceiling: Unl
Heat Index: 54°   Visibility: 10mi
Dew Point: 38°   Wind: 3mph
Humidity: 55%   Direction: 310°NW
Pressure: 29.97"   Gusts: NA
Location:  37.9538°N, 78.6933°W
Report Text: KW13 242335Z AUTO 31003KT 10SM CLR 12/03 A2997 RMK AO1 T01220033
Loading
Personal Weather Stations






























Interactive Weather Map
Tropical Storm Tracking
New forecast layout! Learn more

10-Day Weather Forecast

Advertisements
Track Severe Weather on mobile